createdAt,value
2019-03-22T00:01:53.322Z,87.17
2019-03-22T00:04:21.589Z,86.03
2019-03-22T00:06:49.870Z,86.38
2019-03-22T00:09:18.133Z,87.91
2019-03-22T00:11:46.692Z,88.28
2019-03-22T00:14:14.957Z,86.75
2019-03-22T00:16:43.249Z,87.56
2019-03-22T00:19:11.505Z,86.72
2019-03-22T00:21:39.786Z,87.79
2019-03-22T00:24:08.048Z,87.30
2019-03-22T00:26:37.155Z,87.15
2019-03-22T00:29:05.440Z,87.20
2019-03-22T00:31:33.729Z,86.90
2019-03-22T00:34:01.985Z,87.36
2019-03-22T00:36:30.271Z,87.39
2019-03-22T00:38:59.355Z,88.61
2019-03-22T00:41:27.634Z,88.18
2019-03-22T00:43:56.489Z,86.30
2019-03-22T00:46:24.745Z,84.49
2019-03-22T00:48:53.002Z,86.79
2019-03-22T00:51:21.289Z,88.24
2019-03-22T00:53:49.554Z,87.57
2019-03-22T00:56:17.833Z,86.61
2019-03-22T00:58:46.097Z,88.11
2019-03-22T01:01:14.377Z,87.48
2019-03-22T01:03:42.647Z,87.19
2019-03-22T01:06:10.936Z,88.19
2019-03-22T01:08:39.185Z,87.50
2019-03-22T01:11:07.721Z,88.13
2019-03-22T01:13:36.002Z,90.13
2019-03-22T01:16:04.267Z,89.08
2019-03-22T01:18:33.118Z,88.76
2019-03-22T01:21:01.946Z,88.14
2019-03-22T01:23:30.233Z,87.93
2019-03-22T01:25:58.493Z,88.69
2019-03-22T01:28:26.782Z,87.41
2019-03-22T01:30:55.046Z,88.41
2019-03-22T01:33:23.327Z,89.27
2019-03-22T01:35:51.586Z,88.84
2019-03-22T01:38:20.433Z,88.61
2019-03-22T01:40:49.463Z,89.56
2019-03-22T01:43:17.751Z,88.76
2019-03-22T01:45:46.009Z,88.77
2019-03-22T01:48:14.296Z,90.37
2019-03-22T01:50:42.556Z,90.74
2019-03-22T01:53:10.833Z,90.93
2019-03-22T01:55:39.099Z,90.72
2019-03-22T01:58:07.419Z,90.77
2019-03-22T02:00:35.685Z,91.44
2019-03-22T02:03:03.981Z,91.63
2019-03-22T02:05:32.225Z,91.85
2019-03-22T02:08:01.280Z,90.70
2019-03-22T02:10:30.211Z,90.46
2019-03-22T02:12:58.498Z,89.37
2019-03-22T02:15:27.852Z,88.30
2019-03-22T02:17:56.804Z,88.55
2019-03-22T02:20:25.063Z,88.06
2019-03-22T02:22:53.343Z,89.84
2019-03-22T02:25:21.604Z,89.66
2019-03-22T02:27:50.656Z,91.01
2019-03-22T02:30:18.939Z,91.36
2019-03-22T02:32:47.535Z,90.62
2019-03-22T02:35:28.198Z,89.43
2019-03-22T02:37:47.357Z,90.42
2019-03-22T02:40:15.607Z,90.12
2019-03-22T02:42:43.893Z,91.23
2019-03-22T02:45:14.354Z,91.53
2019-03-22T02:47:41.998Z,91.71
2019-03-22T02:50:18.372Z,89.52
2019-03-22T02:52:42.508Z,91.03
2019-03-22T02:55:11.309Z,90.85
2019-03-22T02:57:39.594Z,91.02
2019-03-22T03:00:18.005Z,89.78
2019-03-22T03:02:46.296Z,91.32
2019-03-22T03:05:15.713Z,92.24
2019-03-22T03:07:43.972Z,92.80
2019-03-22T03:10:14.684Z,91.95
2019-03-22T03:12:43.536Z,92.20
2019-03-22T03:15:16.370Z,92.34
2019-03-22T03:17:44.624Z,92.41
2019-03-22T03:20:17.476Z,92.26
2019-03-22T03:22:46.510Z,91.64
2019-03-22T03:25:15.068Z,92.53
2019-03-22T03:27:43.898Z,92.99
2019-03-22T03:30:15.310Z,92.88
2019-03-22T03:32:43.561Z,92.50
2019-03-22T03:35:11.846Z,92.09
2019-03-22T03:37:40.111Z,93.25
2019-03-22T03:40:13.122Z,91.20
2019-03-22T03:42:41.699Z,91.48
2019-03-22T03:45:34.667Z,92.01
2019-03-22T03:48:04.798Z,92.83
2019-03-22T03:50:33.080Z,93.79
2019-03-22T03:53:01.919Z,93.98
2019-03-22T03:55:30.973Z,92.76
2019-03-22T03:57:59.231Z,93.31
2019-03-22T04:00:28.081Z,92.26
2019-03-22T04:02:56.360Z,90.53
2019-03-22T04:05:25.088Z,89.00
2019-03-22T04:07:53.507Z,89.49
2019-03-22T04:10:21.794Z,89.31
2019-03-22T04:12:50.824Z,90.89
2019-03-22T04:15:19.107Z,90.11
2019-03-22T04:17:48.051Z,92.30
2019-03-22T04:20:16.336Z,92.06
2019-03-22T04:22:44.583Z,93.76
2019-03-22T04:25:12.878Z,92.69
2019-03-22T04:27:41.899Z,91.99
2019-03-22T04:30:11.540Z,91.30
2019-03-22T04:32:39.778Z,91.10
2019-03-22T04:35:08.127Z,90.51
2019-03-22T04:37:36.394Z,90.48
2019-03-22T04:40:25.854Z,90.37
2019-03-22T04:42:54.127Z,90.10
2019-03-22T04:45:23.234Z,90.74
2019-03-22T04:47:53.996Z,90.20
2019-03-22T04:50:22.281Z,88.89
2019-03-22T04:52:50.783Z,88.67
2019-03-22T04:55:19.639Z,90.85
2019-03-22T04:57:47.906Z,90.81
2019-03-22T05:00:16.190Z,92.32
2019-03-22T05:02:44.448Z,93.44
2019-03-22T05:05:13.040Z,91.79
2019-03-22T05:07:41.371Z,91.99
2019-03-22T05:10:10.023Z,91.52
2019-03-22T05:12:38.289Z,91.36
2019-03-22T05:15:07.444Z,91.24
2019-03-22T05:17:35.708Z,90.87
2019-03-22T05:20:05.028Z,91.42
2019-03-22T05:22:33.291Z,91.83
2019-03-22T05:25:02.147Z,92.10
2019-03-22T05:27:30.414Z,91.90
2019-03-22T05:29:58.695Z,92.09
2019-03-22T05:32:27.524Z,92.46
2019-03-22T05:34:56.584Z,92.84
2019-03-22T05:37:24.843Z,92.53
2019-03-22T05:39:53.130Z,91.70
2019-03-22T05:42:21.392Z,91.64
2019-03-22T05:44:49.680Z,89.47
2019-03-22T05:47:18.706Z,89.53
2019-03-22T05:49:47.767Z,90.57
2019-03-22T05:52:16.025Z,92.10
2019-03-22T05:54:44.977Z,93.05
2019-03-22T05:57:14.120Z,93.39
2019-03-22T05:59:43.185Z,91.75
2019-03-22T06:02:11.620Z,91.78
2019-03-22T06:04:39.880Z,93.18
2019-03-22T06:07:08.232Z,93.27
2019-03-22T06:09:37.061Z,92.86
2019-03-22T06:12:05.343Z,92.89
2019-03-22T06:14:34.376Z,93.10
2019-03-22T06:17:02.660Z,93.19
2019-03-22T06:19:31.695Z,92.97
2019-03-22T06:21:59.978Z,92.82
2019-03-22T06:24:28.552Z,92.26
2019-03-22T06:26:57.134Z,92.38
2019-03-22T06:29:25.521Z,92.60
2019-03-22T06:31:53.786Z,92.34
2019-03-22T06:34:22.215Z,92.29
2019-03-22T06:36:50.507Z,92.03
2019-03-22T06:39:18.768Z,91.61
2019-03-22T06:41:47.051Z,91.54
2019-03-22T06:44:15.313Z,91.95
2019-03-22T06:46:43.599Z,91.82
2019-03-22T06:49:11.860Z,91.55
2019-03-22T06:51:40.243Z,91.10
2019-03-22T06:54:08.572Z,90.60
2019-03-22T06:56:36.855Z,90.52
2019-03-22T06:59:05.160Z,91.09
2019-03-22T07:01:33.400Z,90.16
2019-03-22T07:04:01.660Z,89.89
2019-03-22T07:06:29.944Z,89.98
2019-03-22T07:08:58.380Z,89.58
2019-03-22T07:11:26.669Z,89.47
2019-03-22T07:13:54.933Z,89.09
2019-03-22T07:16:23.215Z,89.23
2019-03-22T07:18:51.477Z,89.21
2019-03-22T07:21:19.764Z,88.78
2019-03-22T07:23:48.095Z,87.74
2019-03-22T07:26:16.547Z,87.55
2019-03-22T07:28:44.976Z,87.57
2019-03-22T07:31:13.335Z,87.09
2019-03-22T07:33:41.773Z,86.61
2019-03-22T07:36:10.056Z,86.30
2019-03-22T07:38:38.369Z,86.30
2019-03-22T07:41:06.653Z,86.19
2019-03-22T07:43:35.083Z,85.06
2019-03-22T07:46:03.368Z,84.94
2019-03-22T07:48:32.400Z,84.79
2019-03-22T07:51:00.682Z,84.37
2019-03-22T07:53:29.306Z,83.70
2019-03-22T07:55:57.564Z,83.60
2019-03-22T07:58:26.882Z,84.56
2019-03-22T08:00:55.153Z,83.49
2019-03-22T08:03:23.431Z,83.12
2019-03-22T08:05:51.815Z,82.92
2019-03-22T08:08:20.061Z,81.62
2019-03-22T08:10:48.892Z,81.26
2019-03-22T08:13:17.176Z,76.81
2019-03-22T08:15:45.454Z,77.84
2019-03-22T08:18:13.722Z,76.36
2019-03-22T08:20:41.980Z,77.43
2019-03-22T08:23:18.518Z,76.74
2019-03-22T08:25:46.757Z,75.19
2019-03-22T08:28:15.056Z,76.50
2019-03-22T08:30:43.590Z,77.95
2019-03-22T08:33:11.889Z,77.34
2019-03-22T08:35:40.897Z,78.16
2019-03-22T08:38:09.190Z,73.17
2019-03-22T08:40:37.448Z,72.95
2019-03-22T08:43:05.731Z,74.70
2019-03-22T08:45:34.004Z,73.90
2019-03-22T08:48:02.323Z,74.11
2019-03-22T08:50:30.538Z,73.38
2019-03-22T08:52:58.823Z,73.03
2019-03-22T08:55:27.426Z,73.33
2019-03-22T08:57:55.684Z,72.38
2019-03-22T09:00:24.016Z,72.33
2019-03-22T09:02:52.292Z,73.69
2019-03-22T09:05:21.161Z,72.60
2019-03-22T09:07:49.407Z,69.52
2019-03-22T09:10:18.365Z,68.06
2019-03-22T09:12:46.623Z,67.77
2019-03-22T09:15:14.884Z,67.13
2019-03-22T09:17:43.169Z,64.66
2019-03-22T09:20:11.428Z,62.36
2019-03-22T09:22:39.718Z,63.81
2019-03-22T09:25:08.608Z,61.83
2019-03-22T09:27:36.991Z,59.61
2019-03-22T09:30:11.481Z,60.46
2019-03-22T09:32:39.763Z,61.30
2019-03-22T09:35:08.025Z,61.76
2019-03-22T09:37:36.674Z,60.57
2019-03-22T09:40:08.620Z,61.89
2019-03-22T09:42:37.129Z,60.27
2019-03-22T09:45:06.818Z,62.46
2019-03-22T09:47:35.076Z,59.30
2019-03-22T09:50:04.907Z,58.96
2019-03-22T09:52:33.822Z,57.34
2019-03-22T09:55:12.635Z,57.85
2019-03-22T09:57:32.816Z,57.23
2019-03-22T10:00:01.142Z,60.17
2019-03-22T10:02:29.473Z,58.86
2019-03-22T10:04:58.464Z,58.30
2019-03-22T10:07:26.804Z,58.54
2019-03-22T10:09:55.106Z,58.91
2019-03-22T10:12:23.345Z,60.80
2019-03-22T10:14:51.666Z,60.71
2019-03-22T10:17:19.911Z,58.25
2019-03-22T10:19:48.195Z,58.65
2019-03-22T10:22:16.460Z,58.17
2019-03-22T10:24:44.787Z,56.95
2019-03-22T10:27:13.065Z,56.60
2019-03-22T10:29:41.316Z,56.02
2019-03-22T10:32:09.582Z,55.83
2019-03-22T10:34:39.888Z,54.88
2019-03-22T10:37:07.641Z,52.50
2019-03-22T10:39:36.679Z,51.34
2019-03-22T10:42:06.559Z,50.76
2019-03-22T10:44:35.387Z,52.32
2019-03-22T10:47:04.482Z,49.37
2019-03-22T10:49:32.720Z,49.03
2019-03-22T10:52:01.090Z,46.43
2019-03-22T10:54:30.115Z,49.53
2019-03-22T10:56:58.448Z,47.42
2019-03-22T10:59:26.743Z,46.51
2019-03-22T11:02:03.402Z,48.98
2019-03-22T11:04:25.788Z,49.70
2019-03-22T11:06:54.140Z,50.85
2019-03-22T11:09:22.423Z,48.63
2019-03-22T11:11:50.722Z,47.48
2019-03-22T11:14:18.969Z,46.73
2019-03-22T11:16:47.230Z,47.03
2019-03-22T11:19:15.555Z,47.17
2019-03-22T11:21:43.816Z,45.56
2019-03-22T11:24:12.099Z,48.32
2019-03-22T11:26:40.936Z,48.42
2019-03-22T11:29:09.218Z,46.02
2019-03-22T11:31:40.150Z,45.14
2019-03-22T11:34:07.494Z,44.58
2019-03-22T11:36:35.751Z,44.29
2019-03-22T11:39:15.109Z,44.36
2019-03-22T11:41:38.351Z,45.65
2019-03-22T11:44:07.176Z,46.06
2019-03-22T11:46:35.435Z,44.17
2019-03-22T11:49:03.729Z,44.58
2019-03-22T11:51:32.574Z,44.48
2019-03-22T11:54:00.847Z,44.19
2019-03-22T11:56:29.104Z,44.19
2019-03-22T11:58:58.156Z,44.68
2019-03-22T12:01:26.415Z,44.59
2019-03-22T12:03:54.695Z,44.77
2019-03-22T12:06:22.963Z,43.80
2019-03-22T12:08:51.244Z,44.74
2019-03-22T12:11:19.502Z,45.80
2019-03-22T12:13:47.794Z,44.46
2019-03-22T12:16:16.096Z,42.84
2019-03-22T12:18:44.848Z,44.84
2019-03-22T12:21:14.448Z,42.64
2019-03-22T12:23:42.726Z,42.64
2019-03-22T12:26:11.764Z,42.66
2019-03-22T12:28:40.042Z,42.29
2019-03-22T12:31:08.876Z,41.96
2019-03-22T12:33:37.160Z,40.76
2019-03-22T12:36:05.425Z,41.96
2019-03-22T12:38:33.716Z,44.29
2019-03-22T12:41:02.748Z,44.29
2019-03-22T12:43:31.031Z,44.77
2019-03-22T12:45:59.764Z,41.86
2019-03-22T12:48:28.824Z,44.64
2019-03-22T12:50:57.905Z,41.76
2019-03-22T12:53:26.187Z,43.06
2019-03-22T12:55:54.448Z,41.39
2019-03-22T12:58:22.733Z,41.65
2019-03-22T13:00:51.667Z,42.15
2019-03-22T13:03:19.933Z,42.90
2019-03-22T13:05:48.220Z,42.42
2019-03-22T13:08:16.483Z,42.31
2019-03-22T13:10:45.339Z,42.99
2019-03-22T13:13:13.600Z,42.99
2019-03-22T13:15:41.884Z,41.51
2019-03-22T13:18:10.915Z,41.23
2019-03-22T13:20:39.484Z,40.96
2019-03-22T13:23:08.548Z,40.97
2019-03-22T13:25:37.398Z,41.83
2019-03-22T13:28:05.661Z,43.35
2019-03-22T13:30:35.283Z,41.55
2019-03-22T13:33:03.814Z,41.26
2019-03-22T13:35:32.094Z,40.44
2019-03-22T13:38:00.354Z,40.78
2019-03-22T13:40:28.633Z,40.70
2019-03-22T13:42:56.890Z,39.15
2019-03-22T13:45:25.949Z,39.90
2019-03-22T13:47:54.576Z,39.33
2019-03-22T13:50:22.858Z,37.87
2019-03-22T13:52:51.122Z,40.28
2019-03-22T13:55:19.395Z,37.71
2019-03-22T13:57:47.658Z,37.24
2019-03-22T14:00:17.666Z,38.07
2019-03-22T14:02:45.921Z,37.45
2019-03-22T14:05:14.198Z,37.71
2019-03-22T14:07:43.234Z,38.15
2019-03-22T14:10:31.482Z,38.35
2019-03-22T14:13:01.937Z,36.96
2019-03-22T14:15:30.213Z,37.79
2019-03-22T14:17:58.641Z,37.71
2019-03-22T14:20:26.921Z,38.03
2019-03-22T14:22:55.176Z,38.65
2019-03-22T14:25:23.533Z,37.49
2019-03-22T14:27:52.058Z,38.09
2019-03-22T14:30:20.343Z,38.38
2019-03-22T14:32:48.603Z,38.39
2019-03-22T14:35:17.426Z,36.63
2019-03-22T14:37:46.474Z,37.45
2019-03-22T14:40:15.743Z,36.88
2019-03-22T14:42:44.290Z,38.21
2019-03-22T14:45:13.114Z,36.87
2019-03-22T14:47:41.397Z,36.91
2019-03-22T14:50:10.493Z,40.62
2019-03-22T14:52:38.774Z,39.89
2019-03-22T14:55:07.034Z,38.35
2019-03-22T14:57:35.323Z,39.09
2019-03-22T15:00:05.687Z,40.73
2019-03-22T15:02:34.838Z,39.90
2019-03-22T15:05:03.100Z,41.15
2019-03-22T15:07:31.389Z,39.22
2019-03-22T15:09:59.647Z,41.18
2019-03-22T15:12:27.932Z,39.93
2019-03-22T15:15:04.557Z,40.92
2019-03-22T15:17:37.206Z,43.37
2019-03-22T15:20:13.395Z,43.88
2019-03-22T15:22:49.883Z,42.21
2019-03-22T15:25:19.777Z,43.99
2019-03-22T15:27:58.826Z,45.04
2019-03-22T15:30:44.937Z,45.68
2019-03-22T15:33:34.167Z,47.37
2019-03-22T15:36:15.358Z,48.32
2019-03-22T15:38:45.384Z,47.61
2019-03-22T15:41:13.741Z,47.47
2019-03-22T15:43:42.862Z,50.08
2019-03-22T15:46:11.689Z,49.50
2019-03-22T15:48:39.967Z,47.80
2019-03-22T15:51:08.222Z,47.53
2019-03-22T15:53:37.074Z,45.91
2019-03-22T15:56:05.335Z,46.59
2019-03-22T15:58:33.878Z,50.52
2019-03-22T16:01:02.307Z,48.44
2019-03-22T16:03:32.524Z,47.47
2019-03-22T16:06:00.876Z,50.16
2019-03-22T16:08:29.142Z,49.15
2019-03-22T16:10:57.405Z,49.42
2019-03-22T16:13:27.018Z,51.05
2019-03-22T16:15:55.276Z,53.35
2019-03-22T16:18:24.323Z,52.02
2019-03-22T16:20:59.865Z,53.80
2019-03-22T16:23:22.592Z,53.54
2019-03-22T16:25:50.836Z,52.33
2019-03-22T16:28:19.118Z,54.71
2019-03-22T16:30:47.374Z,54.08
2019-03-22T16:33:15.670Z,56.34
2019-03-22T16:35:43.936Z,57.26
2019-03-22T16:38:12.217Z,56.68
2019-03-22T16:40:40.470Z,53.41
2019-03-22T16:43:08.756Z,52.20
2019-03-22T16:45:41.588Z,53.33
2019-03-22T16:48:09.875Z,54.87
2019-03-22T16:50:38.132Z,55.61
2019-03-22T16:53:06.415Z,53.28
2019-03-22T16:55:35.443Z,55.35
2019-03-22T16:58:03.723Z,52.30
2019-03-22T17:00:31.983Z,52.22
2019-03-22T17:03:00.267Z,53.64
2019-03-22T17:05:28.522Z,51.58
2019-03-22T17:07:56.781Z,55.22
2019-03-22T17:10:25.095Z,53.83
2019-03-22T17:12:53.923Z,55.70
2019-03-22T17:15:22.196Z,55.98
2019-03-22T17:17:50.507Z,58.26
2019-03-22T17:20:18.789Z,59.46
2019-03-22T17:22:47.289Z,59.27
2019-03-22T17:25:15.567Z,58.59
2019-03-22T17:27:45.438Z,58.28
2019-03-22T17:30:13.792Z,55.54
2019-03-22T17:32:43.381Z,57.25
2019-03-22T17:35:11.658Z,57.97
2019-03-22T17:37:39.916Z,59.83
2019-03-22T17:40:08.468Z,61.14
2019-03-22T17:42:36.994Z,61.52
2019-03-22T17:45:11.009Z,60.45
2019-03-22T17:47:39.267Z,62.28
2019-03-22T17:50:08.893Z,61.92
2019-03-22T17:52:37.151Z,61.07
2019-03-22T17:55:07.171Z,61.13
2019-03-22T17:57:35.774Z,61.03
2019-03-22T18:00:05.992Z,61.44
2019-03-22T18:02:34.249Z,62.71
2019-03-22T18:05:02.528Z,62.21
2019-03-22T18:07:30.781Z,63.13
2019-03-22T18:09:59.062Z,63.16
2019-03-22T18:12:28.358Z,61.05
2019-03-22T18:14:57.210Z,62.57
2019-03-22T18:17:25.467Z,61.25
2019-03-22T18:19:53.751Z,62.25
2019-03-22T18:22:22.006Z,62.83
2019-03-22T18:24:50.287Z,62.41
2019-03-22T18:27:19.314Z,61.50
2019-03-22T18:29:47.598Z,61.14
2019-03-22T18:32:15.857Z,61.86
2019-03-22T18:34:44.706Z,62.34
2019-03-22T18:37:12.957Z,62.18
2019-03-22T18:39:41.216Z,63.03
2019-03-22T18:42:09.498Z,64.20
2019-03-22T18:44:37.833Z,62.02
2019-03-22T18:47:06.109Z,61.91
2019-03-22T18:49:34.935Z,63.78
2019-03-22T18:52:03.511Z,64.95
2019-03-22T18:54:31.765Z,66.04
2019-03-22T18:57:00.049Z,66.29
2019-03-22T18:59:28.297Z,64.80
2019-03-22T19:01:56.578Z,65.88
2019-03-22T19:04:25.408Z,65.78
2019-03-22T19:06:53.691Z,65.42
2019-03-22T19:09:22.722Z,66.33
2019-03-22T19:11:51.006Z,65.17
2019-03-22T19:14:19.266Z,65.40
2019-03-22T19:16:47.545Z,65.06
2019-03-22T19:19:16.368Z,65.55
2019-03-22T19:21:45.034Z,64.90
2019-03-22T19:24:14.081Z,63.78
2019-03-22T19:26:42.338Z,64.03
2019-03-22T19:29:10.641Z,63.08
2019-03-22T19:31:38.899Z,62.48
2019-03-22T19:34:07.205Z,63.85
2019-03-22T19:36:36.225Z,62.83
2019-03-22T19:39:06.542Z,64.36
2019-03-22T19:41:35.187Z,65.16
2019-03-22T19:44:03.460Z,65.30
2019-03-22T19:46:31.728Z,66.10
2019-03-22T19:49:00.012Z,65.05
2019-03-22T19:51:28.273Z,66.17
2019-03-22T19:53:56.549Z,66.83
2019-03-22T19:56:24.810Z,66.58
2019-03-22T19:58:53.854Z,66.29
2019-03-22T20:01:22.118Z,66.06
2019-03-22T20:03:50.404Z,67.16
2019-03-22T20:06:19.436Z,67.48
2019-03-22T20:08:47.720Z,66.72
2019-03-22T20:11:15.979Z,67.20
2019-03-22T20:13:44.822Z,67.57
2019-03-22T20:16:13.649Z,67.96
2019-03-22T20:18:41.929Z,67.77
2019-03-22T20:21:10.190Z,67.93
2019-03-22T20:23:38.489Z,67.87
2019-03-22T20:26:06.750Z,67.84
2019-03-22T20:28:35.029Z,68.30
2019-03-22T20:31:03.291Z,68.67
2019-03-22T20:33:31.546Z,67.96
2019-03-22T20:35:59.826Z,68.48
2019-03-22T20:38:28.082Z,67.82
2019-03-22T20:40:56.365Z,67.43
2019-03-22T20:43:25.205Z,67.27
2019-03-22T20:45:53.494Z,67.35
2019-03-22T20:48:21.750Z,68.17
2019-03-22T20:50:50.601Z,67.93
2019-03-22T20:53:19.726Z,67.80
2019-03-22T20:55:48.574Z,68.49
2019-03-22T20:58:16.893Z,68.36
2019-03-22T21:00:45.171Z,69.06
2019-03-22T21:03:13.998Z,68.96
2019-03-22T21:05:42.281Z,69.45
2019-03-22T21:08:10.539Z,68.46
2019-03-22T21:10:39.592Z,68.67
2019-03-22T21:13:07.842Z,68.59
2019-03-22T21:15:36.117Z,69.04
2019-03-22T21:18:04.384Z,69.40
2019-03-22T21:20:32.654Z,69.73
2019-03-22T21:23:00.915Z,68.63
2019-03-22T21:25:29.194Z,68.81
2019-03-22T21:27:58.295Z,69.91
2019-03-22T21:30:26.580Z,70.00
2019-03-22T21:32:54.839Z,69.05
2019-03-22T21:35:23.885Z,69.35
2019-03-22T21:37:52.144Z,68.85
2019-03-22T21:40:21.328Z,68.48
2019-03-22T21:42:50.357Z,68.38
2019-03-22T21:45:18.911Z,68.16
2019-03-22T21:47:47.840Z,68.42
2019-03-22T21:50:16.130Z,68.44
2019-03-22T21:52:44.662Z,68.67
2019-03-22T21:55:13.518Z,68.70
2019-03-22T21:57:41.773Z,68.71
2019-03-22T22:00:12.553Z,69.30
2019-03-22T22:02:40.814Z,68.49
2019-03-22T22:05:09.090Z,67.70
2019-03-22T22:07:37.347Z,68.92
2019-03-22T22:10:07.422Z,68.80
2019-03-22T22:12:35.673Z,67.73
2019-03-22T22:15:12.135Z,68.88
2019-03-22T22:17:41.062Z,69.40
2019-03-22T22:20:10.277Z,68.39
2019-03-22T22:22:39.877Z,69.16
2019-03-22T22:25:08.755Z,68.60
2019-03-22T22:27:37.180Z,68.22
2019-03-22T22:30:10.422Z,67.84
2019-03-22T22:32:38.639Z,67.80
2019-03-22T22:35:09.679Z,68.48
2019-03-22T22:37:37.934Z,68.88
2019-03-22T22:40:07.761Z,68.73
2019-03-22T22:42:36.092Z,69.25
2019-03-22T22:45:07.296Z,70.21
2019-03-22T22:47:35.850Z,70.34
2019-03-22T22:50:05.366Z,70.21
2019-03-22T22:52:33.617Z,71.45
2019-03-22T22:55:01.893Z,72.35
2019-03-22T22:57:30.149Z,72.74
2019-03-22T22:59:58.410Z,72.84
2019-03-22T23:02:26.682Z,72.00
2019-03-22T23:04:55.709Z,72.40
2019-03-22T23:07:23.989Z,72.79
2019-03-22T23:09:52.239Z,72.40
2019-03-22T23:12:20.513Z,72.10
2019-03-22T23:14:48.765Z,71.51
2019-03-22T23:17:17.814Z,70.85
2019-03-22T23:19:46.075Z,70.71
2019-03-22T23:22:14.346Z,70.83
2019-03-22T23:24:42.883Z,70.10
2019-03-22T23:27:11.267Z,69.67
2019-03-22T23:29:39.530Z,69.57
2019-03-22T23:32:07.819Z,69.10
2019-03-22T23:34:36.644Z,68.79
2019-03-22T23:37:07.116Z,64.92
2019-03-22T23:39:34.970Z,67.09
2019-03-22T23:42:03.821Z,67.21
2019-03-22T23:44:32.074Z,65.67
2019-03-22T23:47:01.123Z,66.59
2019-03-22T23:49:29.384Z,67.43
2019-03-22T23:51:58.227Z,69.09
2019-03-22T23:54:26.482Z,70.15
2019-03-22T23:56:55.047Z,68.47
2019-03-22T23:59:23.777Z,67.60
